sensor_id;sensor_type;location;lat;lon;timestamp;P1;durP1;ratioP1;P2;durP2;ratioP2
59006;SDS011;44792;52.760;6.726;2023-08-31T00:49:18;9.18;;;2.10;;
59006;SDS011;44792;52.760;6.726;2023-08-31T00:51:45;6.55;;;2.55;;
59006;SDS011;44792;52.760;6.726;2023-08-31T00:54:14;4.07;;;2.05;;
59006;SDS011;44792;52.760;6.726;2023-08-31T00:56:41;5.93;;;2.85;;
59006;SDS011;44792;52.760;6.726;2023-08-31T00:59:07;4.15;;;2.30;;
59006;SDS011;44792;52.760;6.726;2023-08-31T01:01:41;7.53;;;2.42;;
59006;SDS011;44792;52.760;6.726;2023-08-31T01:04:18;7.07;;;2.20;;
59006;SDS011;44792;52.760;6.726;2023-08-31T01:07:09;3.45;;;2.50;;
59006;SDS011;44792;52.760;6.726;2023-08-31T01:12:46;5.28;;;2.65;;
59006;SDS011;44792;52.760;6.726;2023-08-31T01:15:17;6.68;;;2.95;;
59006;SDS011;44792;52.760;6.726;2023-08-31T01:17:47;4.70;;;2.60;;
59006;SDS011;44792;52.760;6.726;2023-08-31T01:20:17;5.65;;;2.70;;
59006;SDS011;44792;52.760;6.726;2023-08-31T01:22:48;6.20;;;2.50;;
59006;SDS011;44792;52.760;6.726;2023-08-31T01:25:20;6.43;;;2.78;;
59006;SDS011;44792;52.760;6.726;2023-08-31T01:27:46;6.97;;;2.70;;
59006;SDS011;44792;52.760;6.726;2023-08-31T01:30:12;4.43;;;2.38;;
59006;SDS011;44792;52.760;6.726;2023-08-31T01:32:42;5.57;;;2.38;;
59006;SDS011;44792;52.760;6.726;2023-08-31T01:35:10;7.18;;;2.47;;
59006;SDS011;44792;52.760;6.726;2023-08-31T01:37:42;3.97;;;2.53;;
59006;SDS011;44792;52.760;6.726;2023-08-31T01:40:16;6.13;;;2.63;;
59006;SDS011;44792;52.760;6.726;2023-08-31T01:42:52;3.50;;;2.28;;
59006;SDS011;44792;52.760;6.726;2023-08-31T01:45:20;5.13;;;2.75;;
59006;SDS011;44792;52.760;6.726;2023-08-31T01:47:47;6.32;;;2.90;;
59006;SDS011;44792;52.760;6.726;2023-08-31T01:50:13;6.43;;;2.95;;
59006;SDS011;44792;52.760;6.726;2023-08-31T01:52:39;7.20;;;3.03;;
59006;SDS011;44792;52.760;6.726;2023-08-31T01:55:05;4.72;;;2.65;;
59006;SDS011;44792;52.760;6.726;2023-08-31T01:57:32;4.97;;;3.25;;
59006;SDS011;44792;52.760;6.726;2023-08-31T01:59:58;4.30;;;2.85;;
59006;SDS011;44792;52.760;6.726;2023-08-31T02:02:24;5.15;;;2.97;;
59006;SDS011;44792;52.760;6.726;2023-08-31T02:04:50;6.45;;;3.08;;
59006;SDS011;44792;52.760;6.726;2023-08-31T02:07:17;5.22;;;3.00;;
59006;SDS011;44792;52.760;6.726;2023-08-31T02:09:43;6.38;;;3.65;;
59006;SDS011;44792;52.760;6.726;2023-08-31T02:12:08;5.60;;;3.00;;
59006;SDS011;44792;52.760;6.726;2023-08-31T02:14:37;7.70;;;4.03;;
59006;SDS011;44792;52.760;6.726;2023-08-31T02:17:04;7.53;;;3.85;;
59006;SDS011;44792;52.760;6.726;2023-08-31T02:19:29;6.70;;;3.58;;
59006;SDS011;44792;52.760;6.726;2023-08-31T02:21:55;6.07;;;3.70;;
59006;SDS011;44792;52.760;6.726;2023-08-31T02:24:21;4.28;;;3.25;;
59006;SDS011;44792;52.760;6.726;2023-08-31T02:26:47;5.28;;;3.85;;
59006;SDS011;44792;52.760;6.726;2023-08-31T02:29:13;4.13;;;3.33;;
59006;SDS011;44792;52.760;6.726;2023-08-31T02:31:39;5.28;;;3.13;;
59006;SDS011;44792;52.760;6.726;2023-08-31T02:34:06;4.57;;;3.20;;
59006;SDS011;44792;52.760;6.726;2023-08-31T02:36:32;5.57;;;3.78;;
59006;SDS011;44792;52.760;6.726;2023-08-31T02:38:57;4.22;;;3.40;;
59006;SDS011;44792;52.760;6.726;2023-08-31T02:41:23;6.15;;;3.28;;
59006;SDS011;44792;52.760;6.726;2023-08-31T02:43:52;8.27;;;3.80;;
59006;SDS011;44792;52.760;6.726;2023-08-31T02:46:18;5.18;;;3.85;;
59006;SDS011;44792;52.760;6.726;2023-08-31T02:48:43;5.85;;;3.80;;
59006;SDS011;44792;52.760;6.726;2023-08-31T02:51:09;7.70;;;3.60;;
59006;SDS011;44792;52.760;6.726;2023-08-31T02:53:35;8.02;;;4.07;;
59006;SDS011;44792;52.760;6.726;2023-08-31T02:56:01;5.55;;;3.60;;
59006;SDS011;44792;52.760;6.726;2023-08-31T02:58:27;5.78;;;4.07;;
59006;SDS011;44792;52.760;6.726;2023-08-31T03:00:53;6.75;;;4.28;;
59006;SDS011;44792;52.760;6.726;2023-08-31T03:03:20;4.75;;;4.03;;
59006;SDS011;44792;52.760;6.726;2023-08-31T03:05:46;8.38;;;4.40;;
59006;SDS011;44792;52.760;6.726;2023-08-31T03:08:12;7.68;;;4.22;;
59006;SDS011;44792;52.760;6.726;2023-08-31T03:10:38;6.68;;;4.18;;
59006;SDS011;44792;52.760;6.726;2023-08-31T03:13:04;6.18;;;4.30;;
59006;SDS011;44792;52.760;6.726;2023-08-31T03:15:33;9.27;;;5.55;;
59006;SDS011;44792;52.760;6.726;2023-08-31T03:17:59;10.60;;;4.70;;
59006;SDS011;44792;52.760;6.726;2023-08-31T03:20:25;7.97;;;5.30;;
59006;SDS011;44792;52.760;6.726;2023-08-31T03:22:51;6.30;;;4.97;;
59006;SDS011;44792;52.760;6.726;2023-08-31T03:25:17;8.15;;;5.05;;
59006;SDS011;44792;52.760;6.726;2023-08-31T03:27:42;4.65;;;4.25;;
59006;SDS011;44792;52.760;6.726;2023-08-31T03:30:09;7.20;;;4.75;;
59006;SDS011;44792;52.760;6.726;2023-08-31T03:32:35;5.90;;;4.63;;
59006;SDS011;44792;52.760;6.726;2023-08-31T03:35:03;5.13;;;4.18;;
59006;SDS011;44792;52.760;6.726;2023-08-31T03:37:30;5.07;;;4.57;;
59006;SDS011;44792;52.760;6.726;2023-08-31T03:39:55;5.68;;;4.15;;
59006;SDS011;44792;52.760;6.726;2023-08-31T03:42:21;4.78;;;3.83;;
59006;SDS011;44792;52.760;6.726;2023-08-31T03:44:47;4.35;;;3.78;;
59006;SDS011;44792;52.760;6.726;2023-08-31T03:47:12;5.38;;;3.78;;
59006;SDS011;44792;52.760;6.726;2023-08-31T03:49:38;4.43;;;3.88;;
59006;SDS011;44792;52.760;6.726;2023-08-31T03:52:04;4.78;;;3.95;;
59006;SDS011;44792;52.760;6.726;2023-08-31T03:54:29;4.38;;;3.35;;
59006;SDS011;44792;52.760;6.726;2023-08-31T03:56:55;4.70;;;4.18;;
59006;SDS011;44792;52.760;6.726;2023-08-31T03:59:21;4.82;;;3.60;;
59006;SDS011;44792;52.760;6.726;2023-08-31T04:01:46;6.32;;;3.80;;
59006;SDS011;44792;52.760;6.726;2023-08-31T04:04:12;5.55;;;3.03;;
59006;SDS011;44792;52.760;6.726;2023-08-31T04:06:38;4.57;;;3.63;;
59006;SDS011;44792;52.760;6.726;2023-08-31T04:09:03;4.25;;;3.85;;
59006;SDS011;44792;52.760;6.726;2023-08-31T04:11:29;5.93;;;3.75;;
59006;SDS011;44792;52.760;6.726;2023-08-31T04:13:55;5.25;;;3.83;;
59006;SDS011;44792;52.760;6.726;2023-08-31T04:16:20;4.20;;;3.67;;
59006;SDS011;44792;52.760;6.726;2023-08-31T04:18:46;4.80;;;3.45;;
59006;SDS011;44792;52.760;6.726;2023-08-31T04:21:16;3.47;;;3.10;;
59006;SDS011;44792;52.760;6.726;2023-08-31T04:23:42;5.03;;;3.25;;
59006;SDS011;44792;52.760;6.726;2023-08-31T04:26:11;4.82;;;3.83;;
59006;SDS011;44792;52.760;6.726;2023-08-31T04:28:38;5.07;;;3.38;;
59006;SDS011;44792;52.760;6.726;2023-08-31T04:31:05;6.40;;;3.70;;
59006;SDS011;44792;52.760;6.726;2023-08-31T04:33:33;6.50;;;3.45;;
59006;SDS011;44792;52.760;6.726;2023-08-31T04:36:03;4.18;;;3.15;;
59006;SDS011;44792;52.760;6.726;2023-08-31T04:38:30;4.82;;;3.20;;
59006;SDS011;44792;52.760;6.726;2023-08-31T04:40:59;5.60;;;3.00;;
59006;SDS011;44792;52.760;6.726;2023-08-31T04:43:26;6.30;;;3.20;;
59006;SDS011;44792;52.760;6.726;2023-08-31T04:45:52;7.47;;;3.42;;
59006;SDS011;44792;52.760;6.726;2023-08-31T04:48:18;4.30;;;2.65;;
59006;SDS011;44792;52.760;6.726;2023-08-31T04:50:44;4.13;;;2.67;;
59006;SDS011;44792;52.760;6.726;2023-08-31T04:53:10;4.50;;;2.88;;
59006;SDS011;44792;52.760;6.726;2023-08-31T04:55:36;4.43;;;2.90;;
59006;SDS011;44792;52.760;6.726;2023-08-31T04:58:02;4.22;;;3.20;;
59006;SDS011;44792;52.760;6.726;2023-08-31T05:00:29;5.78;;;3.03;;
59006;SDS011;44792;52.760;6.726;2023-08-31T05:02:55;2.85;;;2.50;;
59006;SDS011;44792;52.760;6.726;2023-08-31T05:05:21;3.75;;;2.72;;
59006;SDS011;44792;52.760;6.726;2023-08-31T05:07:47;3.83;;;2.80;;
59006;SDS011;44792;52.760;6.726;2023-08-31T05:10:13;4.30;;;2.53;;
59006;SDS011;44792;52.760;6.726;2023-08-31T05:12:38;4.90;;;2.70;;
59006;SDS011;44792;52.760;6.726;2023-08-31T05:15:04;3.17;;;2.60;;
59006;SDS011;44792;52.760;6.726;2023-08-31T05:17:30;4.80;;;3.03;;
59006;SDS011;44792;52.760;6.726;2023-08-31T05:19:56;5.22;;;2.50;;
59006;SDS011;44792;52.760;6.726;2023-08-31T05:22:22;4.13;;;2.60;;
59006;SDS011;44792;52.760;6.726;2023-08-31T05:24:48;6.03;;;3.15;;
59006;SDS011;44792;52.760;6.726;2023-08-31T05:27:14;4.70;;;2.70;;
59006;SDS011;44792;52.760;6.726;2023-08-31T05:29:40;3.95;;;2.90;;
59006;SDS011;44792;52.760;6.726;2023-08-31T05:32:05;4.20;;;2.70;;
59006;SDS011;44792;52.760;6.726;2023-08-31T05:34:31;3.50;;;2.67;;
59006;SDS011;44792;52.760;6.726;2023-08-31T05:37:02;6.38;;;2.78;;
59006;SDS011;44792;52.760;6.726;2023-08-31T05:39:30;3.83;;;2.75;;
59006;SDS011;44792;52.760;6.726;2023-08-31T05:41:56;4.90;;;3.10;;
59006;SDS011;44792;52.760;6.726;2023-08-31T05:44:22;7.63;;;2.75;;
59006;SDS011;44792;52.760;6.726;2023-08-31T05:46:47;4.15;;;2.63;;
59006;SDS011;44792;52.760;6.726;2023-08-31T05:49:13;3.42;;;2.80;;
59006;SDS011;44792;52.760;6.726;2023-08-31T05:51:39;5.65;;;2.53;;
59006;SDS011;44792;52.760;6.726;2023-08-31T05:54:04;8.30;;;3.53;;
59006;SDS011;44792;52.760;6.726;2023-08-31T05:56:35;5.03;;;2.45;;
59006;SDS011;44792;52.760;6.726;2023-08-31T05:59:01;3.85;;;2.55;;
59006;SDS011;44792;52.760;6.726;2023-08-31T06:01:27;5.45;;;3.10;;
59006;SDS011;44792;52.760;6.726;2023-08-31T06:03:53;7.38;;;2.92;;
59006;SDS011;44792;52.760;6.726;2023-08-31T06:06:18;2.53;;;2.20;;
59006;SDS011;44792;52.760;6.726;2023-08-31T06:08:44;4.63;;;2.60;;
59006;SDS011;44792;52.760;6.726;2023-08-31T06:11:10;6.03;;;2.85;;
59006;SDS011;44792;52.760;6.726;2023-08-31T06:13:36;4.45;;;2.72;;
59006;SDS011;44792;52.760;6.726;2023-08-31T06:16:03;3.95;;;2.65;;
59006;SDS011;44792;52.760;6.726;2023-08-31T06:18:28;3.80;;;2.38;;
59006;SDS011;44792;52.760;6.726;2023-08-31T06:20:54;3.67;;;2.35;;
59006;SDS011;44792;52.760;6.726;2023-08-31T06:23:20;5.10;;;3.17;;
59006;SDS011;44792;52.760;6.726;2023-08-31T06:25:46;6.60;;;2.80;;
59006;SDS011;44792;52.760;6.726;2023-08-31T06:28:12;3.78;;;2.35;;
59006;SDS011;44792;52.760;6.726;2023-08-31T06:30:38;5.82;;;3.05;;
59006;SDS011;44792;52.760;6.726;2023-08-31T06:33:04;4.50;;;2.72;;
59006;SDS011;44792;52.760;6.726;2023-08-31T06:35:30;6.53;;;2.13;;
59006;SDS011;44792;52.760;6.726;2023-08-31T06:37:58;6.65;;;2.42;;
59006;SDS011;44792;52.760;6.726;2023-08-31T06:40:24;5.50;;;2.50;;
59006;SDS011;44792;52.760;6.726;2023-08-31T06:42:50;9.38;;;2.63;;
59006;SDS011;44792;52.760;6.726;2023-08-31T06:45:16;3.90;;;2.38;;
59006;SDS011;44792;52.760;6.726;2023-08-31T06:47:42;4.07;;;2.85;;
59006;SDS011;44792;52.760;6.726;2023-08-31T06:50:07;5.78;;;2.67;;
59006;SDS011;44792;52.760;6.726;2023-08-31T06:52:33;6.28;;;2.60;;
59006;SDS011;44792;52.760;6.726;2023-08-31T06:54:59;3.45;;;2.50;;
59006;SDS011;44792;52.760;6.726;2023-08-31T06:57:25;5.68;;;2.70;;
59006;SDS011;44792;52.760;6.726;2023-08-31T06:59:52;4.57;;;2.65;;
59006;SDS011;44792;52.760;6.726;2023-08-31T07:02:18;3.85;;;2.47;;
59006;SDS011;44792;52.760;6.726;2023-08-31T07:04:45;6.40;;;2.65;;
59006;SDS011;44792;52.760;6.726;2023-08-31T07:07:11;4.97;;;2.70;;
59006;SDS011;44792;52.760;6.726;2023-08-31T07:09:43;4.72;;;2.65;;
59006;SDS011;44792;52.760;6.726;2023-08-31T07:12:09;4.30;;;2.75;;
59006;SDS011;44792;52.760;6.726;2023-08-31T07:14:35;6.32;;;2.55;;
59006;SDS011;44792;52.760;6.726;2023-08-31T07:17:01;4.75;;;2.42;;
59006;SDS011;44792;52.760;6.726;2023-08-31T07:19:27;7.28;;;2.83;;
59006;SDS011;44792;52.760;6.726;2023-08-31T07:21:52;8.40;;;2.60;;
59006;SDS011;44792;52.760;6.726;2023-08-31T07:24:22;5.35;;;2.47;;
59006;SDS011;44792;52.760;6.726;2023-08-31T07:26:48;4.57;;;2.65;;
59006;SDS011;44792;52.760;6.726;2023-08-31T07:29:14;3.22;;;2.33;;
59006;SDS011;44792;52.760;6.726;2023-08-31T07:31:40;7.75;;;2.28;;
59006;SDS011;44792;52.760;6.726;2023-08-31T07:34:06;4.90;;;2.17;;
59006;SDS011;44792;52.760;6.726;2023-08-31T07:36:32;5.05;;;2.90;;
59006;SDS011;44792;52.760;6.726;2023-08-31T07:38:58;4.10;;;2.35;;
59006;SDS011;44792;52.760;6.726;2023-08-31T07:41:24;4.30;;;1.92;;
59006;SDS011;44792;52.760;6.726;2023-08-31T07:43:50;3.05;;;1.50;;
59006;SDS011;44792;52.760;6.726;2023-08-31T07:46:15;6.05;;;2.17;;
59006;SDS011;44792;52.760;6.726;2023-08-31T07:48:43;3.55;;;1.75;;
59006;SDS011;44792;52.760;6.726;2023-08-31T07:51:09;7.10;;;1.90;;
59006;SDS011;44792;52.760;6.726;2023-08-31T07:53:35;3.40;;;1.77;;
59006;SDS011;44792;52.760;6.726;2023-08-31T07:56:00;4.50;;;2.08;;
59006;SDS011;44792;52.760;6.726;2023-08-31T07:58:26;4.43;;;1.88;;
59006;SDS011;44792;52.760;6.726;2023-08-31T08:00:52;4.03;;;1.77;;
59006;SDS011;44792;52.760;6.726;2023-08-31T08:03:19;6.15;;;1.65;;
59006;SDS011;44792;52.760;6.726;2023-08-31T08:05:45;5.32;;;2.10;;
59006;SDS011;44792;52.760;6.726;2023-08-31T08:08:10;6.70;;;1.85;;
59006;SDS011;44792;52.760;6.726;2023-08-31T08:10:36;2.55;;;1.70;;
59006;SDS011;44792;52.760;6.726;2023-08-31T08:13:02;3.55;;;1.30;;
59006;SDS011;44792;52.760;6.726;2023-08-31T08:15:28;7.05;;;1.65;;
59006;SDS011;44792;52.760;6.726;2023-08-31T08:17:54;3.13;;;1.73;;
59006;SDS011;44792;52.760;6.726;2023-08-31T08:20:22;6.82;;;1.50;;
59006;SDS011;44792;52.760;6.726;2023-08-31T08:22:48;3.08;;;1.42;;
59006;SDS011;44792;52.760;6.726;2023-08-31T08:25:17;3.47;;;1.58;;
59006;SDS011;44792;52.760;6.726;2023-08-31T08:27:46;3.00;;;1.40;;
59006;SDS011;44792;52.760;6.726;2023-08-31T08:30:13;3.95;;;1.27;;
59006;SDS011;44792;52.760;6.726;2023-08-31T08:32:40;3.25;;;1.30;;
59006;SDS011;44792;52.760;6.726;2023-08-31T08:35:06;1.58;;;1.15;;
59006;SDS011;44792;52.760;6.726;2023-08-31T08:37:32;4.38;;;1.67;;
59006;SDS011;44792;52.760;6.726;2023-08-31T08:39:58;2.78;;;1.10;;
59006;SDS011;44792;52.760;6.726;2023-08-31T08:42:24;2.50;;;1.00;;
59006;SDS011;44792;52.760;6.726;2023-08-31T08:44:51;3.25;;;0.90;;
59006;SDS011;44792;52.760;6.726;2023-08-31T08:47:17;5.35;;;1.20;;
59006;SDS011;44792;52.760;6.726;2023-08-31T08:49:43;4.38;;;1.08;;
59006;SDS011;44792;52.760;6.726;2023-08-31T08:52:09;3.78;;;1.27;;
59006;SDS011;44792;52.760;6.726;2023-08-31T08:54:36;5.50;;;1.10;;
59006;SDS011;44792;52.760;6.726;2023-08-31T08:57:03;2.40;;;0.88;;
59006;SDS011;44792;52.760;6.726;2023-08-31T08:59:32;4.13;;;1.20;;
59006;SDS011;44792;52.760;6.726;2023-08-31T09:01:58;1.90;;;0.90;;
59006;SDS011;44792;52.760;6.726;2023-08-31T09:04:24;2.42;;;0.82;;
59006;SDS011;44792;52.760;6.726;2023-08-31T09:06:50;1.45;;;0.70;;
59006;SDS011;44792;52.760;6.726;2023-08-31T09:09:16;1.50;;;0.70;;
59006;SDS011;44792;52.760;6.726;2023-08-31T09:11:42;2.58;;;0.77;;
59006;SDS011;44792;52.760;6.726;2023-08-31T09:14:17;1.55;;;0.70;;
59006;SDS011;44792;52.760;6.726;2023-08-31T09:16:45;2.30;;;0.70;;
59006;SDS011;44792;52.760;6.726;2023-08-31T09:19:19;2.08;;;0.70;;
59006;SDS011;44792;52.760;6.726;2023-08-31T09:21:49;0.90;;;0.90;;
59006;SDS011;44792;52.760;6.726;2023-08-31T09:24:16;3.63;;;0.70;;
59006;SDS011;44792;52.760;6.726;2023-08-31T09:26:45;3.60;;;0.80;;
59006;SDS011;44792;52.760;6.726;2023-08-31T09:29:18;2.83;;;1.00;;
59006;SDS011;44792;52.760;6.726;2023-08-31T09:31:44;2.63;;;0.82;;
59006;SDS011;44792;52.760;6.726;2023-08-31T09:34:11;4.40;;;0.85;;
59006;SDS011;44792;52.760;6.726;2023-08-31T09:36:39;2.10;;;0.80;;
59006;SDS011;44792;52.760;6.726;2023-08-31T09:39:07;5.70;;;1.10;;
59006;SDS011;44792;52.760;6.726;2023-08-31T09:41:34;2.03;;;1.00;;
59006;SDS011;44792;52.760;6.726;2023-08-31T09:44:17;1.00;;;0.90;;
59006;SDS011;44792;52.760;6.726;2023-08-31T09:46:43;1.45;;;0.90;;
59006;SDS011;44792;52.760;6.726;2023-08-31T09:49:14;3.00;;;1.20;;
59006;SDS011;44792;52.760;6.726;2023-08-31T09:51:43;1.25;;;0.90;;
59006;SDS011;44792;52.760;6.726;2023-08-31T09:54:13;1.80;;;0.65;;
59006;SDS011;44792;52.760;6.726;2023-08-31T09:56:41;1.48;;;0.80;;
59006;SDS011;44792;52.760;6.726;2023-08-31T09:59:09;2.30;;;0.85;;
59006;SDS011;44792;52.760;6.726;2023-08-31T10:01:36;5.43;;;1.15;;
59006;SDS011;44792;52.760;6.726;2023-08-31T10:04:02;2.55;;;0.82;;
59006;SDS011;44792;52.760;6.726;2023-08-31T10:06:28;2.72;;;0.80;;
59006;SDS011;44792;52.760;6.726;2023-08-31T10:08:56;3.58;;;1.30;;
59006;SDS011;44792;52.760;6.726;2023-08-31T10:11:22;2.17;;;0.98;;
59006;SDS011;44792;52.760;6.726;2023-08-31T10:13:50;2.10;;;0.90;;
59006;SDS011;44792;52.760;6.726;2023-08-31T10:16:18;2.05;;;0.68;;
59006;SDS011;44792;52.760;6.726;2023-08-31T10:18:45;4.32;;;0.80;;
59006;SDS011;44792;52.760;6.726;2023-08-31T10:21:11;3.45;;;0.95;;
59006;SDS011;44792;52.760;6.726;2023-08-31T10:23:47;10.68;;;1.02;;
59006;SDS011;44792;52.760;6.726;2023-08-31T10:28:49;2.78;;;0.90;;
59006;SDS011;44792;52.760;6.726;2023-08-31T10:31:15;2.65;;;0.85;;
59006;SDS011;44792;52.760;6.726;2023-08-31T10:36:18;3.40;;;0.90;;
59006;SDS011;44792;52.760;6.726;2023-08-31T10:38:47;3.88;;;0.80;;
59006;SDS011;44792;52.760;6.726;2023-08-31T10:41:31;1.50;;;0.90;;
59006;SDS011;44792;52.760;6.726;2023-08-31T10:43:59;1.05;;;0.88;;
59006;SDS011;44792;52.760;6.726;2023-08-31T10:46:31;1.70;;;0.80;;
59006;SDS011;44792;52.760;6.726;2023-08-31T10:49:12;0.88;;;0.70;;
59006;SDS011;44792;52.760;6.726;2023-08-31T10:51:40;1.45;;;0.60;;
59006;SDS011;44792;52.760;6.726;2023-08-31T10:54:19;1.02;;;0.88;;
59006;SDS011;44792;52.760;6.726;2023-08-31T10:59:17;3.25;;;0.88;;
59006;SDS011;44792;52.760;6.726;2023-08-31T11:04:28;2.25;;;0.90;;
59006;SDS011;44792;52.760;6.726;2023-08-31T11:09:42;3.10;;;0.80;;
59006;SDS011;44792;52.760;6.726;2023-08-31T11:12:09;3.88;;;0.88;;
59006;SDS011;44792;52.760;6.726;2023-08-31T11:14:36;3.83;;;1.10;;
59006;SDS011;44792;52.760;6.726;2023-08-31T11:17:02;2.10;;;0.90;;
59006;SDS011;44792;52.760;6.726;2023-08-31T11:19:29;5.80;;;1.13;;
59006;SDS011;44792;52.760;6.726;2023-08-31T11:21:56;1.80;;;0.90;;
59006;SDS011;44792;52.760;6.726;2023-08-31T11:24:22;1.30;;;0.85;;
59006;SDS011;44792;52.760;6.726;2023-08-31T11:26:51;4.68;;;1.08;;
59006;SDS011;44792;52.760;6.726;2023-08-31T11:29:17;3.95;;;0.88;;
59006;SDS011;44792;52.760;6.726;2023-08-31T11:31:43;2.65;;;0.90;;
59006;SDS011;44792;52.760;6.726;2023-08-31T11:34:12;3.35;;;0.90;;
59006;SDS011;44792;52.760;6.726;2023-08-31T11:36:39;2.42;;;0.90;;
59006;SDS011;44792;52.760;6.726;2023-08-31T11:39:06;2.72;;;0.75;;
59006;SDS011;44792;52.760;6.726;2023-08-31T11:41:33;2.35;;;1.00;;
59006;SDS011;44792;52.760;6.726;2023-08-31T11:44:01;4.88;;;0.80;;
59006;SDS011;44792;52.760;6.726;2023-08-31T11:46:28;1.45;;;0.75;;
59006;SDS011;44792;52.760;6.726;2023-08-31T11:48:55;2.00;;;0.90;;
59006;SDS011;44792;52.760;6.726;2023-08-31T11:51:21;1.27;;;0.68;;
59006;SDS011;44792;52.760;6.726;2023-08-31T11:53:47;3.88;;;1.10;;
59006;SDS011;44792;52.760;6.726;2023-08-31T11:56:13;3.95;;;0.93;;
59006;SDS011;44792;52.760;6.726;2023-08-31T11:58:41;3.53;;;0.90;;
59006;SDS011;44792;52.760;6.726;2023-08-31T12:01:08;4.00;;;1.30;;
59006;SDS011;44792;52.760;6.726;2023-08-31T12:03:51;8.68;;;1.40;;
59006;SDS011;44792;52.760;6.726;2023-08-31T12:06:19;2.97;;;0.82;;
59006;SDS011;44792;52.760;6.726;2023-08-31T12:08:45;6.82;;;1.15;;
59006;SDS011;44792;52.760;6.726;2023-08-31T12:11:10;1.65;;;0.82;;
59006;SDS011;44792;52.760;6.726;2023-08-31T12:13:36;2.33;;;0.70;;
59006;SDS011;44792;52.760;6.726;2023-08-31T12:16:02;4.35;;;0.70;;
59006;SDS011;44792;52.760;6.726;2023-08-31T12:18:32;1.65;;;0.57;;
59006;SDS011;44792;52.760;6.726;2023-08-31T12:21:02;1.30;;;0.70;;
59006;SDS011;44792;52.760;6.726;2023-08-31T12:23:29;1.25;;;0.75;;
59006;SDS011;44792;52.760;6.726;2023-08-31T12:25:55;5.32;;;0.80;;
59006;SDS011;44792;52.760;6.726;2023-08-31T12:28:21;1.60;;;0.80;;
59006;SDS011;44792;52.760;6.726;2023-08-31T12:30:49;2.00;;;1.10;;
59006;SDS011;44792;52.760;6.726;2023-08-31T12:33:16;1.73;;;0.80;;
59006;SDS011;44792;52.760;6.726;2023-08-31T12:35:43;3.28;;;1.02;;
59006;SDS011;44792;52.760;6.726;2023-08-31T12:38:09;5.43;;;1.40;;
59006;SDS011;44792;52.760;6.726;2023-08-31T12:40:35;2.75;;;1.08;;
59006;SDS011;44792;52.760;6.726;2023-08-31T12:43:01;3.72;;;0.82;;
59006;SDS011;44792;52.760;6.726;2023-08-31T12:45:27;1.60;;;0.85;;
59006;SDS011;44792;52.760;6.726;2023-08-31T12:47:53;2.10;;;0.98;;
59006;SDS011;44792;52.760;6.726;2023-08-31T12:50:18;2.75;;;1.00;;
59006;SDS011;44792;52.760;6.726;2023-08-31T12:52:45;1.95;;;0.93;;
59006;SDS011;44792;52.760;6.726;2023-08-31T12:55:14;1.27;;;0.90;;
59006;SDS011;44792;52.760;6.726;2023-08-31T12:57:41;4.00;;;1.00;;
59006;SDS011;44792;52.760;6.726;2023-08-31T13:00:08;2.08;;;1.13;;
59006;SDS011;44792;52.760;6.726;2023-08-31T13:02:38;1.85;;;0.77;;
59006;SDS011;44792;52.760;6.726;2023-08-31T13:05:05;3.45;;;0.90;;
59006;SDS011;44792;52.760;6.726;2023-08-31T13:07:32;4.53;;;0.85;;
59006;SDS011;44792;52.760;6.726;2023-08-31T13:10:00;2.70;;;0.70;;
59006;SDS011;44792;52.760;6.726;2023-08-31T13:12:28;1.98;;;0.85;;
59006;SDS011;44792;52.760;6.726;2023-08-31T13:14:58;2.60;;;0.70;;
59006;SDS011;44792;52.760;6.726;2023-08-31T13:17:24;1.27;;;0.65;;
59006;SDS011;44792;52.760;6.726;2023-08-31T13:19:53;1.55;;;0.77;;
59006;SDS011;44792;52.760;6.726;2023-08-31T13:22:20;8.30;;;1.80;;
59006;SDS011;44792;52.760;6.726;2023-08-31T13:24:46;4.00;;;1.00;;
59006;SDS011;44792;52.760;6.726;2023-08-31T13:27:12;1.98;;;0.95;;
59006;SDS011;44792;52.760;6.726;2023-08-31T13:29:41;2.13;;;1.00;;
59006;SDS011;44792;52.760;6.726;2023-08-31T13:32:07;1.23;;;0.90;;
59006;SDS011;44792;52.760;6.726;2023-08-31T13:34:33;2.10;;;0.80;;
59006;SDS011;44792;52.760;6.726;2023-08-31T13:36:59;1.98;;;0.60;;
59006;SDS011;44792;52.760;6.726;2023-08-31T13:39:25;2.85;;;0.60;;
59006;SDS011;44792;52.760;6.726;2023-08-31T13:41:51;1.55;;;0.80;;
59006;SDS011;44792;52.760;6.726;2023-08-31T13:44:18;1.42;;;0.93;;
59006;SDS011;44792;52.760;6.726;2023-08-31T13:46:45;2.10;;;1.17;;
59006;SDS011;44792;52.760;6.726;2023-08-31T13:49:12;3.38;;;0.90;;
59006;SDS011;44792;52.760;6.726;2023-08-31T13:51:38;3.58;;;1.35;;
59006;SDS011;44792;52.760;6.726;2023-08-31T13:54:04;2.08;;;0.63;;
59006;SDS011;44792;52.760;6.726;2023-08-31T13:56:30;2.40;;;1.10;;
59006;SDS011;44792;52.760;6.726;2023-08-31T13:58:56;3.58;;;1.20;;
59006;SDS011;44792;52.760;6.726;2023-08-31T14:01:22;3.65;;;1.10;;
59006;SDS011;44792;52.760;6.726;2023-08-31T14:03:47;1.88;;;0.80;;
59006;SDS011;44792;52.760;6.726;2023-08-31T14:06:13;4.55;;;1.08;;
59006;SDS011;44792;52.760;6.726;2023-08-31T14:08:40;3.22;;;1.15;;
59006;SDS011;44792;52.760;6.726;2023-08-31T14:11:06;3.47;;;1.00;;
59006;SDS011;44792;52.760;6.726;2023-08-31T14:13:32;2.72;;;1.10;;
59006;SDS011;44792;52.760;6.726;2023-08-31T14:15:58;6.15;;;1.25;;
59006;SDS011;44792;52.760;6.726;2023-08-31T14:18:25;4.10;;;1.05;;
59006;SDS011;44792;52.760;6.726;2023-08-31T14:20:54;2.00;;;0.80;;
59006;SDS011;44792;52.760;6.726;2023-08-31T14:23:20;3.70;;;0.90;;
59006;SDS011;44792;52.760;6.726;2023-08-31T14:25:45;3.65;;;0.90;;
59006;SDS011;44792;52.760;6.726;2023-08-31T14:28:11;5.90;;;1.08;;
59006;SDS011;44792;52.760;6.726;2023-08-31T14:30:37;8.30;;;1.27;;
59006;SDS011;44792;52.760;6.726;2023-08-31T14:33:03;2.25;;;0.85;;
59006;SDS011;44792;52.760;6.726;2023-08-31T14:35:29;2.83;;;0.90;;
59006;SDS011;44792;52.760;6.726;2023-08-31T14:37:56;4.45;;;1.23;;
59006;SDS011;44792;52.760;6.726;2023-08-31T14:40:22;5.05;;;0.95;;
59006;SDS011;44792;52.760;6.726;2023-08-31T14:42:48;2.40;;;1.00;;
59006;SDS011;44792;52.760;6.726;2023-08-31T14:45:14;4.03;;;1.33;;
59006;SDS011;44792;52.760;6.726;2023-08-31T14:47:40;4.07;;;1.38;;
59006;SDS011;44792;52.760;6.726;2023-08-31T14:50:06;5.70;;;1.45;;
59006;SDS011;44792;52.760;6.726;2023-08-31T14:52:32;1.58;;;1.05;;
59006;SDS011;44792;52.760;6.726;2023-08-31T14:54:59;4.68;;;1.30;;
59006;SDS011;44792;52.760;6.726;2023-08-31T14:57:25;3.20;;;0.85;;
59006;SDS011;44792;52.760;6.726;2023-08-31T14:59:51;2.15;;;0.95;;
59006;SDS011;44792;52.760;6.726;2023-08-31T15:02:19;2.67;;;1.00;;
59006;SDS011;44792;52.760;6.726;2023-08-31T15:04:47;2.85;;;1.20;;
59006;SDS011;44792;52.760;6.726;2023-08-31T15:07:14;4.15;;;1.20;;
59006;SDS011;44792;52.760;6.726;2023-08-31T15:09:43;4.68;;;1.10;;
59006;SDS011;44792;52.760;6.726;2023-08-31T15:12:09;2.92;;;1.00;;
59006;SDS011;44792;52.760;6.726;2023-08-31T15:14:36;5.85;;;1.50;;
59006;SDS011;44792;52.760;6.726;2023-08-31T15:17:04;5.70;;;1.17;;
59006;SDS011;44792;52.760;6.726;2023-08-31T15:19:30;6.35;;;1.33;;
59006;SDS011;44792;52.760;6.726;2023-08-31T15:21:57;4.18;;;1.10;;
59006;SDS011;44792;52.760;6.726;2023-08-31T15:24:23;2.83;;;0.90;;
59006;SDS011;44792;52.760;6.726;2023-08-31T15:26:49;2.25;;;1.02;;
59006;SDS011;44792;52.760;6.726;2023-08-31T15:29:15;2.30;;;0.90;;
59006;SDS011;44792;52.760;6.726;2023-08-31T15:31:41;4.55;;;1.10;;
59006;SDS011;44792;52.760;6.726;2023-08-31T15:34:09;4.85;;;1.77;;
59006;SDS011;44792;52.760;6.726;2023-08-31T15:36:35;4.85;;;1.20;;
59006;SDS011;44792;52.760;6.726;2023-08-31T15:39:01;3.05;;;0.95;;
59006;SDS011;44792;52.760;6.726;2023-08-31T15:41:28;2.53;;;0.82;;
59006;SDS011;44792;52.760;6.726;2023-08-31T15:43:59;5.95;;;0.80;;
59006;SDS011;44792;52.760;6.726;2023-08-31T15:46:25;2.75;;;1.00;;
59006;SDS011;44792;52.760;6.726;2023-08-31T15:48:51;2.38;;;1.00;;
59006;SDS011;44792;52.760;6.726;2023-08-31T15:51:17;4.03;;;1.20;;